sensor_id;sensor_type;location;lat;lon;timestamp;pressure;altitude;pressure_sealevel;temperature;humidity
73501;BME280;61721;42.206;25.320;2023-09-08T00:00:12;99986.63;;;21.66;61.14
73501;BME280;61721;42.206;25.320;2023-09-08T00:02:40;99991.06;;;21.67;61.23
73501;BME280;61721;42.206;25.320;2023-09-08T00:05:08;99991.88;;;21.68;60.85
73501;BME280;61721;42.206;25.320;2023-09-08T00:07:36;99994.56;;;21.56;61.28
73501;BME280;61721;42.206;25.320;2023-09-08T00:10:05;99996.16;;;21.64;61.15
73501;BME280;61721;42.206;25.320;2023-09-08T00:12:50;99989.22;;;21.43;61.76
73501;BME280;61721;42.206;25.320;2023-09-08T00:15:21;99979.09;;;21.44;61.68
73501;BME280;61721;42.206;25.320;2023-09-08T00:17:56;99985.19;;;21.46;61.47
73501;BME280;61721;42.206;25.320;2023-09-08T00:20:24;99982.06;;;21.42;61.78
73501;BME280;61721;42.206;25.320;2023-09-08T00:22:52;99981.91;;;21.37;61.92
73501;BME280;61721;42.206;25.320;2023-09-08T00:25:22;99985.25;;;21.39;61.71
73501;BME280;61721;42.206;25.320;2023-09-08T00:27:49;99984.25;;;21.33;61.80
73501;BME280;61721;42.206;25.320;2023-09-08T00:30:16;99974.13;;;21.34;61.71
73501;BME280;61721;42.206;25.320;2023-09-08T00:32:43;99974.13;;;21.34;61.73
73501;BME280;61721;42.206;25.320;2023-09-08T00:35:11;99983.75;;;21.18;62.17
73501;BME280;61721;42.206;25.320;2023-09-08T00:37:40;99979.09;;;21.19;62.24
73501;BME280;61721;42.206;25.320;2023-09-08T00:40:08;99975.53;;;21.18;62.26
73501;BME280;61721;42.206;25.320;2023-09-08T00:42:37;99975.38;;;21.13;62.27
73501;BME280;61721;42.206;25.320;2023-09-08T00:45:05;99980.63;;;21.15;62.37
73501;BME280;61721;42.206;25.320;2023-09-08T00:47:33;99969.34;;;21.29;61.74
73501;BME280;61721;42.206;25.320;2023-09-08T00:50:01;99969.94;;;21.31;62.00
73501;BME280;61721;42.206;25.320;2023-09-08T00:52:29;99973.22;;;21.22;62.40
73501;BME280;61721;42.206;25.320;2023-09-08T00:54:58;99981.84;;;21.19;62.19
73501;BME280;61721;42.206;25.320;2023-09-08T00:57:26;99974.31;;;21.14;62.20
73501;BME280;61721;42.206;25.320;2023-09-08T01:03:36;99972.69;;;21.06;62.41
73501;BME280;61721;42.206;25.320;2023-09-08T01:06:07;99968.44;;;21.11;62.32
73501;BME280;61721;42.206;25.320;2023-09-08T01:08:35;99965.72;;;21.11;62.16
73501;BME280;61721;42.206;25.320;2023-09-08T01:11:03;99970.53;;;20.90;62.88
73501;BME280;61721;42.206;25.320;2023-09-08T01:13:31;99963.59;;;20.88;63.16
73501;BME280;61721;42.206;25.320;2023-09-08T01:16:05;99963.94;;;20.98;62.62
73501;BME280;61721;42.206;25.320;2023-09-08T01:18:32;99962.66;;;21.00;62.79
73501;BME280;61721;42.206;25.320;2023-09-08T01:21:25;99960.03;;;20.87;62.74
73501;BME280;61721;42.206;25.320;2023-09-08T01:24:07;99958.13;;;20.88;63.06
73501;BME280;61721;42.206;25.320;2023-09-08T01:26:47;99952.78;;;21.18;61.82
73501;BME280;61721;42.206;25.320;2023-09-08T01:29:23;99954.66;;;20.99;62.44
73501;BME280;61721;42.206;25.320;2023-09-08T01:31:51;99949.31;;;20.86;62.91
73501;BME280;61721;42.206;25.320;2023-09-08T01:34:19;99948.69;;;20.84;63.06
73501;BME280;61721;42.206;25.320;2023-09-08T01:36:46;99941.31;;;20.84;63.04
73501;BME280;61721;42.206;25.320;2023-09-08T01:39:14;99944.84;;;20.91;62.98
73501;BME280;61721;42.206;25.320;2023-09-08T01:41:42;99942.09;;;20.91;62.70
73501;BME280;61721;42.206;25.320;2023-09-08T01:44:12;99947.97;;;20.95;62.66
73501;BME280;61721;42.206;25.320;2023-09-08T01:46:41;99945.66;;;20.92;62.83
73501;BME280;61721;42.206;25.320;2023-09-08T01:49:08;99946.38;;;21.05;62.75
73501;BME280;61721;42.206;25.320;2023-09-08T01:51:37;99945.06;;;20.90;63.27
73501;BME280;61721;42.206;25.320;2023-09-08T01:54:04;99943.16;;;20.90;63.48
73501;BME280;61721;42.206;25.320;2023-09-08T01:56:32;99943.59;;;20.87;63.24
73501;BME280;61721;42.206;25.320;2023-09-08T01:59:02;99949.97;;;20.81;63.64
73501;BME280;61721;42.206;25.320;2023-09-08T02:01:44;99942.69;;;20.75;64.22
73501;BME280;61721;42.206;25.320;2023-09-08T02:04:12;99945.25;;;20.70;64.47
73501;BME280;61721;42.206;25.320;2023-09-08T02:07:10;99948.41;;;20.92;63.94
73501;BME280;61721;42.206;25.320;2023-09-08T02:09:50;99952.00;;;21.11;63.35
73501;BME280;61721;42.206;25.320;2023-09-08T02:12:17;99949.13;;;21.05;63.25
73501;BME280;61721;42.206;25.320;2023-09-08T02:14:58;99945.31;;;21.06;63.05
73501;BME280;61721;42.206;25.320;2023-09-08T02:17:29;99939.19;;;20.86;63.84
73501;BME280;61721;42.206;25.320;2023-09-08T02:23:03;99940.13;;;20.98;63.35
73501;BME280;61721;42.206;25.320;2023-09-08T02:25:31;99935.25;;;21.00;62.87
73501;BME280;61721;42.206;25.320;2023-09-08T02:28:05;99939.28;;;20.80;63.29
73501;BME280;61721;42.206;25.320;2023-09-08T02:30:48;99939.91;;;21.00;63.44
73501;BME280;61721;42.206;25.320;2023-09-08T02:33:17;99935.59;;;21.11;62.94
73501;BME280;61721;42.206;25.320;2023-09-08T02:35:44;99936.81;;;21.15;62.95
73501;BME280;61721;42.206;25.320;2023-09-08T02:38:12;99934.72;;;20.92;63.25
73501;BME280;61721;42.206;25.320;2023-09-08T02:40:39;99934.50;;;20.93;63.40
73501;BME280;61721;42.206;25.320;2023-09-08T02:43:06;99924.53;;;20.99;63.37
73501;BME280;61721;42.206;25.320;2023-09-08T02:45:34;99926.00;;;21.20;62.78
73501;BME280;61721;42.206;25.320;2023-09-08T02:48:01;99924.94;;;21.02;63.27
73501;BME280;61721;42.206;25.320;2023-09-08T02:50:29;99927.53;;;21.16;62.30
73501;BME280;61721;42.206;25.320;2023-09-08T02:52:57;99926.47;;;21.17;62.27
73501;BME280;61721;42.206;25.320;2023-09-08T02:55:24;99928.72;;;21.01;62.53
73501;BME280;61721;42.206;25.320;2023-09-08T02:57:53;99925.66;;;20.91;62.83
73501;BME280;61721;42.206;25.320;2023-09-08T03:00:21;99920.13;;;20.98;62.72
73501;BME280;61721;42.206;25.320;2023-09-08T03:02:48;99921.09;;;20.85;62.96
73501;BME280;61721;42.206;25.320;2023-09-08T03:05:15;99925.13;;;20.83;62.81
73501;BME280;61721;42.206;25.320;2023-09-08T03:07:44;99919.34;;;20.91;62.76
73501;BME280;61721;42.206;25.320;2023-09-08T03:10:14;99921.19;;;20.97;62.30
73501;BME280;61721;42.206;25.320;2023-09-08T03:12:42;99919.50;;;20.78;62.91
73501;BME280;61721;42.206;25.320;2023-09-08T03:15:10;99925.34;;;20.81;63.01
73501;BME280;61721;42.206;25.320;2023-09-08T03:17:37;99920.63;;;20.88;62.96
73501;BME280;61721;42.206;25.320;2023-09-08T03:20:05;99918.81;;;20.82;62.92
73501;BME280;61721;42.206;25.320;2023-09-08T03:22:33;99921.69;;;20.69;63.35
73501;BME280;61721;42.206;25.320;2023-09-08T03:25:02;99923.69;;;20.80;62.84
73501;BME280;61721;42.206;25.320;2023-09-08T03:27:30;99922.03;;;20.79;62.45
73501;BME280;61721;42.206;25.320;2023-09-08T03:29:57;99923.53;;;20.93;61.70
73501;BME280;61721;42.206;25.320;2023-09-08T03:32:24;99918.69;;;20.95;61.45
73501;BME280;61721;42.206;25.320;2023-09-08T03:34:51;99913.50;;;20.87;61.61
73501;BME280;61721;42.206;25.320;2023-09-08T03:37:19;99912.66;;;20.87;61.46
73501;BME280;61721;42.206;25.320;2023-09-08T03:39:46;99915.31;;;20.75;61.51
73501;BME280;61721;42.206;25.320;2023-09-08T03:42:15;99911.81;;;20.86;61.36
73501;BME280;61721;42.206;25.320;2023-09-08T03:44:42;99914.78;;;20.85;61.43
73501;BME280;61721;42.206;25.320;2023-09-08T03:47:09;99923.53;;;20.93;61.61
73501;BME280;61721;42.206;25.320;2023-09-08T03:49:37;99923.59;;;20.87;61.41
73501;BME280;61721;42.206;25.320;2023-09-08T03:52:04;99922.16;;;20.84;61.97
73501;BME280;61721;42.206;25.320;2023-09-08T03:54:33;99916.47;;;21.04;60.88
73501;BME280;61721;42.206;25.320;2023-09-08T03:57:00;99925.97;;;20.83;61.51
73501;BME280;61721;42.206;25.320;2023-09-08T03:59:30;99927.34;;;20.74;61.52
73501;BME280;61721;42.206;25.320;2023-09-08T04:01:58;99931.84;;;21.05;60.78
73501;BME280;61721;42.206;25.320;2023-09-08T04:04:26;99930.84;;;20.99;60.90
73501;BME280;61721;42.206;25.320;2023-09-08T04:06:54;99934.56;;;20.87;61.17
73501;BME280;61721;42.206;25.320;2023-09-08T04:09:21;99934.44;;;21.00;60.35
73501;BME280;61721;42.206;25.320;2023-09-08T04:11:48;99938.56;;;21.09;60.11
73501;BME280;61721;42.206;25.320;2023-09-08T04:14:16;99933.19;;;20.96;60.68
73501;BME280;61721;42.206;25.320;2023-09-08T04:20:16;99934.38;;;21.06;61.18
73501;BME280;61721;42.206;25.320;2023-09-08T04:22:47;99943.50;;;21.19;60.58
73501;BME280;61721;42.206;25.320;2023-09-08T04:25:36;99947.81;;;21.33;60.13
73501;BME280;61721;42.206;25.320;2023-09-08T04:28:09;99948.16;;;21.18;60.66
73501;BME280;61721;42.206;25.320;2023-09-08T04:30:37;99952.97;;;21.23;60.30
73501;BME280;61721;42.206;25.320;2023-09-08T04:33:05;99954.41;;;21.25;59.88
73501;BME280;61721;42.206;25.320;2023-09-08T04:35:37;99952.97;;;21.23;60.42
73501;BME280;61721;42.206;25.320;2023-09-08T04:38:10;99964.09;;;21.28;60.33
73501;BME280;61721;42.206;25.320;2023-09-08T04:40:40;99958.25;;;21.18;60.17
73501;BME280;61721;42.206;25.320;2023-09-08T04:43:08;99965.00;;;21.22;59.67
73501;BME280;61721;42.206;25.320;2023-09-08T04:45:38;99971.91;;;21.24;59.83
73501;BME280;61721;42.206;25.320;2023-09-08T04:48:07;99977.66;;;21.16;59.68
73501;BME280;61721;42.206;25.320;2023-09-08T04:50:46;99971.09;;;21.24;59.93
73501;BME280;61721;42.206;25.320;2023-09-08T04:53:13;99970.56;;;21.08;59.84
73501;BME280;61721;42.206;25.320;2023-09-08T04:55:44;99975.72;;;20.98;60.51
73501;BME280;61721;42.206;25.320;2023-09-08T04:58:17;99968.22;;;21.12;60.78
73501;BME280;61721;42.206;25.320;2023-09-08T05:00:46;99974.38;;;21.07;61.23
73501;BME280;61721;42.206;25.320;2023-09-08T05:03:14;99974.03;;;20.79;62.31
73501;BME280;61721;42.206;25.320;2023-09-08T05:05:53;99984.56;;;20.51;62.60
73501;BME280;61721;42.206;25.320;2023-09-08T05:08:20;99976.97;;;19.70;67.15
73501;BME280;61721;42.206;25.320;2023-09-08T05:10:53;99980.63;;;19.37;68.64
73501;BME280;61721;42.206;25.320;2023-09-08T05:13:21;99982.72;;;19.35;69.28
73501;BME280;61721;42.206;25.320;2023-09-08T05:15:59;99985.44;;;19.42;69.11
73501;BME280;61721;42.206;25.320;2023-09-08T05:18:36;99994.31;;;19.24;70.24
73501;BME280;61721;42.206;25.320;2023-09-08T05:21:05;99993.19;;;19.45;70.07
73501;BME280;61721;42.206;25.320;2023-09-08T05:23:33;99993.53;;;19.82;68.86
73501;BME280;61721;42.206;25.320;2023-09-08T05:26:00;99997.88;;;19.96;67.95
73501;BME280;61721;42.206;25.320;2023-09-08T05:28:30;99990.53;;;19.96;68.72
73501;BME280;61721;42.206;25.320;2023-09-08T05:30:57;99998.16;;;20.64;66.46
73501;BME280;61721;42.206;25.320;2023-09-08T05:33:25;99998.00;;;21.02;65.09
73501;BME280;61721;42.206;25.320;2023-09-08T05:35:52;100004.44;;;20.89;65.55
73501;BME280;61721;42.206;25.320;2023-09-08T05:38:23;100010.69;;;21.21;64.97
73501;BME280;61721;42.206;25.320;2023-09-08T05:40:51;100009.06;;;21.38;64.11
73501;BME280;61721;42.206;25.320;2023-09-08T05:43:22;100015.47;;;21.32;64.77
73501;BME280;61721;42.206;25.320;2023-09-08T05:45:50;100012.50;;;21.52;64.13
73501;BME280;61721;42.206;25.320;2023-09-08T05:48:17;100013.81;;;22.05;62.45
73501;BME280;61721;42.206;25.320;2023-09-08T05:50:44;100016.94;;;21.90;62.92
73501;BME280;61721;42.206;25.320;2023-09-08T05:53:11;100017.06;;;21.95;62.96
73501;BME280;61721;42.206;25.320;2023-09-08T05:55:41;100019.91;;;21.70;64.09
73501;BME280;61721;42.206;25.320;2023-09-08T05:58:10;100018.00;;;22.07;63.37
73501;BME280;61721;42.206;25.320;2023-09-08T06:00:39;100009.66;;;22.32;61.34
73501;BME280;61721;42.206;25.320;2023-09-08T06:03:11;100005.72;;;22.70;61.17
73501;BME280;61721;42.206;25.320;2023-09-08T06:05:38;100013.84;;;22.76;60.58
73501;BME280;61721;42.206;25.320;2023-09-08T06:08:05;100016.53;;;22.94;59.50
73501;BME280;61721;42.206;25.320;2023-09-08T06:10:35;100011.91;;;23.30;58.30
73501;BME280;61721;42.206;25.320;2023-09-08T06:13:10;100014.84;;;23.52;57.77
73501;BME280;61721;42.206;25.320;2023-09-08T06:15:38;100015.81;;;23.46;56.98
73501;BME280;61721;42.206;25.320;2023-09-08T06:18:05;100017.09;;;23.90;55.75
73501;BME280;61721;42.206;25.320;2023-09-08T06:20:32;100014.91;;;24.04;55.54
73501;BME280;61721;42.206;25.320;2023-09-08T06:23:00;100014.41;;;24.47;54.14
73501;BME280;61721;42.206;25.320;2023-09-08T06:25:27;100021.97;;;24.40;53.67
73501;BME280;61721;42.206;25.320;2023-09-08T06:27:55;100023.84;;;24.51;53.04
73501;BME280;61721;42.206;25.320;2023-09-08T06:30:23;100027.69;;;24.50;52.53
73501;BME280;61721;42.206;25.320;2023-09-08T06:32:51;100028.63;;;24.72;52.06
73501;BME280;61721;42.206;25.320;2023-09-08T06:35:18;100032.19;;;24.56;52.61
73501;BME280;61721;42.206;25.320;2023-09-08T06:37:45;100031.84;;;24.52;50.39
73501;BME280;61721;42.206;25.320;2023-09-08T06:40:12;100027.59;;;24.45;51.34
73501;BME280;61721;42.206;25.320;2023-09-08T06:42:39;100036.78;;;24.10;49.76
73501;BME280;61721;42.206;25.320;2023-09-08T06:45:08;100027.78;;;24.26;49.33
73501;BME280;61721;42.206;25.320;2023-09-08T06:47:38;100031.91;;;24.41;48.87
73501;BME280;61721;42.206;25.320;2023-09-08T06:50:05;100028.38;;;24.17;49.12
73501;BME280;61721;42.206;25.320;2023-09-08T06:52:33;100027.78;;;24.15;47.13
73501;BME280;61721;42.206;25.320;2023-09-08T06:55:00;100026.50;;;24.46;47.72
73501;BME280;61721;42.206;25.320;2023-09-08T06:57:28;100032.63;;;24.65;47.10
73501;BME280;61721;42.206;25.320;2023-09-08T06:59:55;100029.16;;;24.86;45.73
73501;BME280;61721;42.206;25.320;2023-09-08T07:02:22;100031.09;;;25.52;44.89
73501;BME280;61721;42.206;25.320;2023-09-08T07:04:51;100030.78;;;24.53;45.53
73501;BME280;61721;42.206;25.320;2023-09-08T07:07:18;100029.41;;;24.84;45.93
73501;BME280;61721;42.206;25.320;2023-09-08T07:09:46;100035.63;;;25.08;44.70
73501;BME280;61721;42.206;25.320;2023-09-08T07:12:13;100026.56;;;25.46;43.61
73501;BME280;61721;42.206;25.320;2023-09-08T07:14:40;100020.13;;;25.58;43.41
73501;BME280;61721;42.206;25.320;2023-09-08T07:17:07;100029.91;;;25.65;42.82
73501;BME280;61721;42.206;25.320;2023-09-08T07:19:34;100019.28;;;25.96;42.16
73501;BME280;61721;42.206;25.320;2023-09-08T07:22:09;100023.75;;;26.45;41.64
73501;BME280;61721;42.206;25.320;2023-09-08T07:24:37;100028.03;;;25.87;40.59
73501;BME280;61721;42.206;25.320;2023-09-08T07:27:04;100024.72;;;26.88;40.59
73501;BME280;61721;42.206;25.320;2023-09-08T07:29:31;100020.06;;;26.94;39.20
73501;BME280;61721;42.206;25.320;2023-09-08T07:31:58;100022.28;;;27.24;38.75
73501;BME280;61721;42.206;25.320;2023-09-08T07:34:26;100024.72;;;27.20;37.80
73501;BME280;61721;42.206;25.320;2023-09-08T07:36:53;100022.84;;;26.18;38.53
73501;BME280;61721;42.206;25.320;2023-09-08T07:39:21;100015.66;;;26.17;38.90
73501;BME280;61721;42.206;25.320;2023-09-08T07:41:48;100020.81;;;26.57;38.21
73501;BME280;61721;42.206;25.320;2023-09-08T07:44:17;100017.69;;;26.48;38.17
73501;BME280;61721;42.206;25.320;2023-09-08T07:46:44;100015.31;;;27.16;37.40
73501;BME280;61721;42.206;25.320;2023-09-08T07:49:14;100012.44;;;26.25;39.17
73501;BME280;61721;42.206;25.320;2023-09-08T07:51:41;100018.13;;;27.26;38.25
73501;BME280;61721;42.206;25.320;2023-09-08T07:54:09;100012.47;;;27.90;36.43
73501;BME280;61721;42.206;25.320;2023-09-08T07:56:37;100007.47;;;27.03;38.11
73501;BME280;61721;42.206;25.320;2023-09-08T07:59:06;100013.25;;;26.74;38.46
73501;BME280;61721;42.206;25.320;2023-09-08T08:01:34;100004.06;;;26.96;38.01
73501;BME280;61721;42.206;25.320;2023-09-08T08:04:01;99998.72;;;27.16;38.10
73501;BME280;61721;42.206;25.320;2023-09-08T08:06:32;100006.81;;;28.27;35.73
73501;BME280;61721;42.206;25.320;2023-09-08T08:08:59;100004.06;;;28.32;36.65
73501;BME280;61721;42.206;25.320;2023-09-08T08:11:27;99996.06;;;27.31;36.63
73501;BME280;61721;42.206;25.320;2023-09-08T08:13:55;99994.97;;;27.79;36.35
73501;BME280;61721;42.206;25.320;2023-09-08T08:16:23;99991.16;;;27.91;35.40
73501;BME280;61721;42.206;25.320;2023-09-08T08:18:51;99994.94;;;28.32;35.62
73501;BME280;61721;42.206;25.320;2023-09-08T08:24:07;99977.81;;;28.91;33.56
73501;BME280;61721;42.206;25.320;2023-09-08T08:26:36;99985.28;;;29.16;33.08
73501;BME280;61721;42.206;25.320;2023-09-08T08:29:04;99984.72;;;28.58;33.69
73501;BME280;61721;42.206;25.320;2023-09-08T08:31:32;99978.91;;;28.85;33.05
73501;BME280;61721;42.206;25.320;2023-09-08T08:33:59;99981.66;;;28.49;33.46
73501;BME280;61721;42.206;25.320;2023-09-08T08:36:26;99978.63;;;29.06;32.40
73501;BME280;61721;42.206;25.320;2023-09-08T08:38:53;99979.75;;;29.11;32.91
73501;BME280;61721;42.206;25.320;2023-09-08T08:41:21;99979.16;;;28.78;32.80
73501;BME280;61721;42.206;25.320;2023-09-08T08:43:48;99976.97;;;28.55;33.07
73501;BME280;61721;42.206;25.320;2023-09-08T08:46:21;99976.97;;;29.16;32.06
73501;BME280;61721;42.206;25.320;2023-09-08T08:48:49;99986.66;;;29.23;32.70
73501;BME280;61721;42.206;25.320;2023-09-08T08:51:23;99984.88;;;29.83;31.13
73501;BME280;61721;42.206;25.320;2023-09-08T08:53:50;99983.81;;;30.33;30.91
73501;BME280;61721;42.206;25.320;2023-09-08T08:56:17;99975.63;;;30.08;29.84
73501;BME280;61721;42.206;25.320;2023-09-08T08:58:45;99975.94;;;29.91;30.36
73501;BME280;61721;42.206;25.320;2023-09-08T09:01:13;99981.25;;;30.42;29.40
73501;BME280;61721;42.206;25.320;2023-09-08T09:03:46;99977.50;;;29.43;31.62
73501;BME280;61721;42.206;25.320;2023-09-08T09:06:16;99980.19;;;29.68;30.78
73501;BME280;61721;42.206;25.320;2023-09-08T09:08:44;99976.59;;;29.68;31.42
73501;BME280;61721;42.206;25.320;2023-09-08T09:11:13;99981.94;;;30.24;30.81
73501;BME280;61721;42.206;25.320;2023-09-08T09:13:40;99965.56;;;30.66;30.53
73501;BME280;61721;42.206;25.320;2023-09-08T09:16:07;99970.00;;;30.67;29.24
73501;BME280;61721;42.206;25.320;2023-09-08T09:18:54;99955.91;;;30.10;29.98
73501;BME280;61721;42.206;25.320;2023-09-08T09:21:22;99962.88;;;30.02;30.15
73501;BME280;61721;42.206;25.320;2023-09-08T09:23:49;99955.88;;;30.15;29.82
73501;BME280;61721;42.206;25.320;2023-09-08T09:26:24;99959.38;;;30.75;29.13
73501;BME280;61721;42.206;25.320;2023-09-08T09:28:52;99961.88;;;30.76;29.61
73501;BME280;61721;42.206;25.320;2023-09-08T09:31:23;99961.00;;;29.82;29.41
73501;BME280;61721;42.206;25.320;2023-09-08T09:34:03;99969.81;;;30.04;29.56
73501;BME280;61721;42.206;25.320;2023-09-08T09:36:31;99964.78;;;30.56;28.08
73501;BME280;61721;42.206;25.320;2023-09-08T09:38:59;99962.34;;;29.90;29.24
73501;BME280;61721;42.206;25.320;2023-09-08T09:41:28;99946.16;;;30.12;29.76
73501;BME280;61721;42.206;25.320;2023-09-08T09:43:57;99946.81;;;29.89;28.58
73501;BME280;61721;42.206;25.320;2023-09-08T09:46:27;99940.84;;;29.51;29.45
73501;BME280;61721;42.206;25.320;2023-09-08T09:48:55;99939.63;;;29.78;29.50
73501;BME280;61721;42.206;25.320;2023-09-08T09:51:25;99938.53;;;29.73;29.24
73501;BME280;61721;42.206;25.320;2023-09-08T09:53:52;99932.84;;;30.09;28.79
73501;BME280;61721;42.206;25.320;2023-09-08T09:56:22;99918.25;;;29.78;28.92
73501;BME280;61721;42.206;25.320;2023-09-08T09:58:52;99928.34;;;30.18;28.94
73501;BME280;61721;42.206;25.320;2023-09-08T10:01:20;99917.94;;;29.90;28.91
73501;BME280;61721;42.206;25.320;2023-09-08T10:03:49;99923.22;;;29.86;28.42
73501;BME280;61721;42.206;25.320;2023-09-08T10:06:19;99915.69;;;30.41;28.75
73501;BME280;61721;42.206;25.320;2023-09-08T10:08:48;99913.63;;;30.18;27.86
73501;BME280;61721;42.206;25.320;2023-09-08T10:11:21;99907.97;;;30.72;28.76
73501;BME280;61721;42.206;25.320;2023-09-08T10:13:51;99906.94;;;30.63;28.14
73501;BME280;61721;42.206;25.320;2023-09-08T10:16:20;99900.94;;;30.01;27.96
73501;BME280;61721;42.206;25.320;2023-09-08T10:18:49;99908.06;;;30.62;28.15
73501;BME280;61721;42.206;25.320;2023-09-08T10:21:19;99901.53;;;30.38;27.53
73501;BME280;61721;42.206;25.320;2023-09-08T10:23:55;99893.53;;;30.31;27.77
73501;BME280;61721;42.206;25.320;2023-09-08T10:26:27;99901.09;;;30.20;28.07
73501;BME280;61721;42.206;25.320;2023-09-08T10:28:54;99887.44;;;30.29;27.96
73501;BME280;61721;42.206;25.320;2023-09-08T10:31:24;99896.94;;;30.62;27.25
73501;BME280;61721;42.206;25.320;2023-09-08T10:33:54;99893.47;;;31.52;26.75
73501;BME280;61721;42.206;25.320;2023-09-08T10:36:29;99895.91;;;31.35;26.75
73501;BME280;61721;42.206;25.320;2023-09-08T10:42:25;99882.94;;;29.89;28.23
73501;BME280;61721;42.206;25.320;2023-09-08T10:45:01;99881.22;;;29.98;27.59
73501;BME280;61721;42.206;25.320;2023-09-08T10:47:32;99875.84;;;30.17;27.39
73501;BME280;61721;42.206;25.320;2023-09-08T10:50:03;99868.28;;;30.27;27.12
73501;BME280;61721;42.206;25.320;2023-09-08T10:52:31;99870.09;;;30.42;27.36
73501;BME280;61721;42.206;25.320;2023-09-08T10:55:00;99864.91;;;30.70;27.02
73501;BME280;61721;42.206;25.320;2023-09-08T10:57:33;99860.84;;;30.18;28.15
73501;BME280;61721;42.206;25.320;2023-09-08T11:00:03;99860.41;;;30.40;28.63
73501;BME280;61721;42.206;25.320;2023-09-08T11:02:38;99856.09;;;30.23;28.22
73501;BME280;61721;42.206;25.320;2023-09-08T11:05:08;99858.72;;;30.04;27.80
73501;BME280;61721;42.206;25.320;2023-09-08T11:07:36;99855.41;;;29.97;28.76
73501;BME280;61721;42.206;25.320;2023-09-08T11:10:04;99855.09;;;30.04;28.58
73501;BME280;61721;42.206;25.320;2023-09-08T11:12:34;99858.88;;;30.23;29.04
73501;BME280;61721;42.206;25.320;2023-09-08T11:15:03;99853.78;;;30.70;27.81
73501;BME280;61721;42.206;25.320;2023-09-08T11:17:31;99849.22;;;30.79;27.54
73501;BME280;61721;42.206;25.320;2023-09-08T11:20:00;99839.19;;;30.83;27.87
73501;BME280;61721;42.206;25.320;2023-09-08T11:22:28;99845.28;;;30.51;28.77
73501;BME280;61721;42.206;25.320;2023-09-08T11:24:56;99840.81;;;30.21;27.99
73501;BME280;61721;42.206;25.320;2023-09-08T11:27:23;99831.41;;;30.17;28.23
73501;BME280;61721;42.206;25.320;2023-09-08T11:29:52;99842.19;;;30.57;28.10
73501;BME280;61721;42.206;25.320;2023-09-08T11:32:20;99833.63;;;30.83;27.32
73501;BME280;61721;42.206;25.320;2023-09-08T11:34:47;99833.78;;;30.67;27.32
73501;BME280;61721;42.206;25.320;2023-09-08T11:37:17;99831.38;;;30.85;27.28
73501;BME280;61721;42.206;25.320;2023-09-08T11:39:45;99816.59;;;30.60;27.46
73501;BME280;61721;42.206;25.320;2023-09-08T11:42:14;99821.25;;;30.94;27.16
73501;BME280;61721;42.206;25.320;2023-09-08T11:44:41;99823.84;;;30.85;27.39
73501;BME280;61721;42.206;25.320;2023-09-08T11:47:10;99806.63;;;30.59;27.11
73501;BME280;61721;42.206;25.320;2023-09-08T11:49:39;99808.44;;;30.98;27.41
73501;BME280;61721;42.206;25.320;2023-09-08T11:52:07;99812.69;;;30.90;27.01
73501;BME280;61721;42.206;25.320;2023-09-08T11:54:35;99805.81;;;31.07;27.10
73501;BME280;61721;42.206;25.320;2023-09-08T11:57:04;99812.13;;;30.64;27.23
73501;BME280;61721;42.206;25.320;2023-09-08T11:59:34;99805.06;;;30.43;26.83
73501;BME280;61721;42.206;25.320;2023-09-08T12:02:01;99806.31;;;30.27;27.03
73501;BME280;61721;42.206;25.320;2023-09-08T12:04:35;99805.34;;;30.13;27.41
73501;BME280;61721;42.206;25.320;2023-09-08T12:07:02;99788.78;;;29.92;27.56
73501;BME280;61721;42.206;25.320;2023-09-08T12:09:29;99795.13;;;30.37;27.19
73501;BME280;61721;42.206;25.320;2023-09-08T12:12:00;99785.56;;;30.48;26.03
73501;BME280;61721;42.206;25.320;2023-09-08T12:14:29;99783.28;;;30.26;27.26
73501;BME280;61721;42.206;25.320;2023-09-08T12:17:05;99784.53;;;30.39;27.14
73501;BME280;61721;42.206;25.320;2023-09-08T12:19:35;99790.50;;;30.56;26.81
73501;BME280;61721;42.206;25.320;2023-09-08T12:22:04;99784.41;;;30.83;26.70
73501;BME280;61721;42.206;25.320;2023-09-08T12:24:49;99783.28;;;30.55;26.86
73501;BME280;61721;42.206;25.320;2023-09-08T12:27:18;99777.72;;;30.55;26.08
73501;BME280;61721;42.206;25.320;2023-09-08T12:29:55;99763.97;;;30.93;26.64
73501;BME280;61721;42.206;25.320;2023-09-08T12:32:23;99764.22;;;30.96;26.09
73501;BME280;61721;42.206;25.320;2023-09-08T12:34:52;99766.69;;;30.98;26.45
73501;BME280;61721;42.206;25.320;2023-09-08T12:37:20;99760.06;;;30.41;26.20
73501;BME280;61721;42.206;25.320;2023-09-08T12:39:48;99760.00;;;30.46;26.51
73501;BME280;61721;42.206;25.320;2023-09-08T12:42:15;99755.69;;;30.88;26.50
73501;BME280;61721;42.206;25.320;2023-09-08T12:44:43;99760.72;;;30.62;25.96
73501;BME280;61721;42.206;25.320;2023-09-08T12:47:11;99754.09;;;30.82;25.80
73501;BME280;61721;42.206;25.320;2023-09-08T12:49:39;99760.78;;;30.81;26.67
73501;BME280;61721;42.206;25.320;2023-09-08T12:52:08;99754.50;;;30.94;26.01
73501;BME280;61721;42.206;25.320;2023-09-08T12:54:35;99746.09;;;31.42;25.82
73501;BME280;61721;42.206;25.320;2023-09-08T12:57:03;99751.34;;;31.43;25.48
73501;BME280;61721;42.206;25.320;2023-09-08T12:59:31;99744.06;;;31.28;26.35
73501;BME280;61721;42.206;25.320;2023-09-08T13:01:58;99744.69;;;31.02;26.31
73501;BME280;61721;42.206;25.320;2023-09-08T13:04:26;99743.81;;;30.82;26.71
73501;BME280;61721;42.206;25.320;2023-09-08T13:06:54;99758.22;;;30.60;27.05
73501;BME280;61721;42.206;25.320;2023-09-08T13:09:25;99747.22;;;30.98;27.06
73501;BME280;61721;42.206;25.320;2023-09-08T13:11:53;99752.38;;;31.10;27.21
73501;BME280;61721;42.206;25.320;2023-09-08T13:14:20;99742.31;;;30.66;27.97